Highland-University Park's Hourly Summary for Tuesday, March 14, 2017
Hour Temp
(f)
RH
(%)
Solar Rad.
(MJ/m2)
Rainfall
(in)
Wind
(mph)
3/14/2017 12:00 AM 47 37 0 0 1.07
3/14/2017 1:00 AM 45 43 0 0 0.7
3/14/2017 2:00 AM 43 46 0 0 0.27
3/14/2017 3:00 AM 42 49 0 0 1.06
3/14/2017 4:00 AM 41 50 0 0 0.24
3/14/2017 5:00 AM 39 57 0 0 0
3/14/2017 6:00 AM 38 60 0 0 0.07
3/14/2017 7:00 AM 38 60 0 0 0.02
3/14/2017 8:00 AM 36 68 0.02 0 0
3/14/2017 9:00 AM 40 58 0.3 0 0.75
3/14/2017 10:00 AM 45 47 1.1 0 2.25
3/14/2017 11:00 AM 48 43 1.79 0 1.54
3/14/2017 12:00 PM 51 37 2.44 0 2.02
3/14/2017 1:00 PM 54 32 2.81 0 1.86
3/14/2017 2:00 PM 57 30 2.97 0 1.94
3/14/2017 3:00 PM 60 29 2.79 0 2.18
3/14/2017 4:00 PM 61 29 2.54 0 3.08
3/14/2017 5:00 PM 63 28 2.07 0 2.59
3/14/2017 6:00 PM 64 28 1.41 0 1.62
3/14/2017 7:00 PM 63 29 0.46 0 0.63
3/14/2017 8:00 PM 59 34 0.03 0 1.06
3/14/2017 9:00 PM 57 41 0 0 1.36
3/14/2017 10:00 PM 56 45 0 0 1.04
3/14/2017 11:00 PM 54 48 0 0 0.43
Data Summary 50 42 20.73 0.00 1.16